sensor_id;sensor_type;location;lat;lon;timestamp;P1;durP1;ratioP1;P2;durP2;ratioP2
75716;SDS011;64333;50.138;14.332;2022-11-30T00:01:53;28.67;;;13.05;;
75716;SDS011;64333;50.138;14.332;2022-11-30T00:04:19;31.35;;;13.77;;
75716;SDS011;64333;50.138;14.332;2022-11-30T00:06:44;29.75;;;14.85;;
75716;SDS011;64333;50.138;14.332;2022-11-30T00:09:09;31.75;;;14.25;;
75716;SDS011;64333;50.138;14.332;2022-11-30T00:11:35;33.80;;;15.35;;
75716;SDS011;64333;50.138;14.332;2022-11-30T00:14:01;32.45;;;14.50;;
75716;SDS011;64333;50.138;14.332;2022-11-30T00:16:26;28.70;;;13.73;;
75716;SDS011;64333;50.138;14.332;2022-11-30T00:18:51;28.80;;;13.65;;
75716;SDS011;64333;50.138;14.332;2022-11-30T00:21:17;32.15;;;14.15;;
75716;SDS011;64333;50.138;14.332;2022-11-30T00:23:43;29.48;;;13.90;;
75716;SDS011;64333;50.138;14.332;2022-11-30T00:26:10;29.52;;;14.00;;
75716;SDS011;64333;50.138;14.332;2022-11-30T00:28:37;28.88;;;14.43;;
75716;SDS011;64333;50.138;14.332;2022-11-30T00:31:04;27.85;;;14.32;;
75716;SDS011;64333;50.138;14.332;2022-11-30T00:33:32;32.60;;;15.63;;
75716;SDS011;64333;50.138;14.332;2022-11-30T00:35:59;34.20;;;15.98;;
75716;SDS011;64333;50.138;14.332;2022-11-30T00:38:26;32.00;;;15.50;;
75716;SDS011;64333;50.138;14.332;2022-11-30T00:40:51;34.28;;;16.10;;
75716;SDS011;64333;50.138;14.332;2022-11-30T00:43:17;34.25;;;16.27;;
75716;SDS011;64333;50.138;14.332;2022-11-30T00:45:42;31.67;;;15.63;;
75716;SDS011;64333;50.138;14.332;2022-11-30T00:48:08;30.25;;;15.30;;
75716;SDS011;64333;50.138;14.332;2022-11-30T00:50:33;34.85;;;15.73;;
75716;SDS011;64333;50.138;14.332;2022-11-30T00:52:58;34.15;;;15.27;;
75716;SDS011;64333;50.138;14.332;2022-11-30T00:55:24;35.78;;;16.10;;
75716;SDS011;64333;50.138;14.332;2022-11-30T00:57:50;31.77;;;15.52;;
75716;SDS011;64333;50.138;14.332;2022-11-30T01:00:15;32.05;;;15.90;;
75716;SDS011;64333;50.138;14.332;2022-11-30T01:02:41;32.22;;;15.65;;
75716;SDS011;64333;50.138;14.332;2022-11-30T01:05:07;33.83;;;15.68;;
75716;SDS011;64333;50.138;14.332;2022-11-30T01:07:32;35.63;;;17.55;;
75716;SDS011;64333;50.138;14.332;2022-11-30T01:09:58;33.53;;;15.20;;
75716;SDS011;64333;50.138;14.332;2022-11-30T01:12:23;34.30;;;15.63;;
75716;SDS011;64333;50.138;14.332;2022-11-30T01:14:48;34.00;;;14.57;;
75716;SDS011;64333;50.138;14.332;2022-11-30T01:17:14;32.42;;;15.30;;
75716;SDS011;64333;50.138;14.332;2022-11-30T01:19:39;32.53;;;15.02;;
75716;SDS011;64333;50.138;14.332;2022-11-30T01:22:04;31.35;;;15.20;;
75716;SDS011;64333;50.138;14.332;2022-11-30T01:24:30;32.22;;;15.00;;
75716;SDS011;64333;50.138;14.332;2022-11-30T01:26:55;35.15;;;15.43;;
75716;SDS011;64333;50.138;14.332;2022-11-30T01:29:20;30.40;;;14.10;;
75716;SDS011;64333;50.138;14.332;2022-11-30T01:31:46;32.83;;;14.63;;
75716;SDS011;64333;50.138;14.332;2022-11-30T01:34:11;31.27;;;14.48;;
75716;SDS011;64333;50.138;14.332;2022-11-30T01:36:36;36.40;;;15.38;;
75716;SDS011;64333;50.138;14.332;2022-11-30T01:39:05;29.58;;;14.20;;
75716;SDS011;64333;50.138;14.332;2022-11-30T01:41:31;28.17;;;13.82;;
75716;SDS011;64333;50.138;14.332;2022-11-30T01:44:38;33.53;;;14.68;;
75716;SDS011;64333;50.138;14.332;2022-11-30T01:46:43;31.15;;;14.50;;
75716;SDS011;64333;50.138;14.332;2022-11-30T01:52:01;30.20;;;14.00;;
75716;SDS011;64333;50.138;14.332;2022-11-30T01:54:37;30.05;;;14.25;;
75716;SDS011;64333;50.138;14.332;2022-11-30T01:57:33;27.05;;;14.00;;
75716;SDS011;64333;50.138;14.332;2022-11-30T02:00:00;25.05;;;11.80;;
75716;SDS011;64333;50.138;14.332;2022-11-30T02:02:33;29.75;;;13.20;;
75716;SDS011;64333;50.138;14.332;2022-11-30T02:05:06;30.48;;;14.27;;
75716;SDS011;64333;50.138;14.332;2022-11-30T02:07:33;27.30;;;13.88;;
75716;SDS011;64333;50.138;14.332;2022-11-30T02:09:58;35.28;;;14.80;;
75716;SDS011;64333;50.138;14.332;2022-11-30T02:17:59;32.92;;;13.27;;
75716;SDS011;64333;50.138;14.332;2022-11-30T02:20:49;29.30;;;13.45;;
75716;SDS011;64333;50.138;14.332;2022-11-30T02:26:19;26.23;;;11.20;;
75716;SDS011;64333;50.138;14.332;2022-11-30T02:29:11;31.50;;;13.27;;
75716;SDS011;64333;50.138;14.332;2022-11-30T02:31:59;32.40;;;13.65;;
75716;SDS011;64333;50.138;14.332;2022-11-30T02:34:32;30.02;;;14.30;;
75716;SDS011;64333;50.138;14.332;2022-11-30T02:37:00;28.50;;;12.88;;
75716;SDS011;64333;50.138;14.332;2022-11-30T02:39:26;30.45;;;14.18;;
75716;SDS011;64333;50.138;14.332;2022-11-30T02:41:52;36.33;;;15.52;;
75716;SDS011;64333;50.138;14.332;2022-11-30T02:44:17;30.17;;;14.23;;
75716;SDS011;64333;50.138;14.332;2022-11-30T02:52:03;27.80;;;14.00;;
75716;SDS011;64333;50.138;14.332;2022-11-30T02:54:31;30.67;;;13.98;;
75716;SDS011;64333;50.138;14.332;2022-11-30T02:56:57;28.65;;;12.80;;
75716;SDS011;64333;50.138;14.332;2022-11-30T02:59:22;27.88;;;14.05;;
75716;SDS011;64333;50.138;14.332;2022-11-30T03:01:48;30.88;;;13.40;;
75716;SDS011;64333;50.138;14.332;2022-11-30T03:04:13;31.55;;;13.75;;
75716;SDS011;64333;50.138;14.332;2022-11-30T03:06:38;30.00;;;14.15;;
75716;SDS011;64333;50.138;14.332;2022-11-30T03:09:04;34.33;;;14.50;;
75716;SDS011;64333;50.138;14.332;2022-11-30T03:11:29;33.13;;;14.05;;
75716;SDS011;64333;50.138;14.332;2022-11-30T03:13:55;31.80;;;14.45;;
75716;SDS011;64333;50.138;14.332;2022-11-30T03:16:20;31.98;;;14.05;;
75716;SDS011;64333;50.138;14.332;2022-11-30T03:18:45;29.63;;;14.88;;
75716;SDS011;64333;50.138;14.332;2022-11-30T03:21:11;33.70;;;13.48;;
75716;SDS011;64333;50.138;14.332;2022-11-30T03:23:37;27.70;;;13.60;;
75716;SDS011;64333;50.138;14.332;2022-11-30T03:26:03;34.85;;;15.15;;
75716;SDS011;64333;50.138;14.332;2022-11-30T03:28:30;29.80;;;13.88;;
75716;SDS011;64333;50.138;14.332;2022-11-30T03:30:56;30.27;;;13.82;;
75716;SDS011;64333;50.138;14.332;2022-11-30T03:33:21;31.90;;;14.05;;
75716;SDS011;64333;50.138;14.332;2022-11-30T03:35:47;31.08;;;14.23;;
75716;SDS011;64333;50.138;14.332;2022-11-30T03:38:13;30.58;;;13.52;;
75716;SDS011;64333;50.138;14.332;2022-11-30T03:40:38;31.38;;;13.52;;
75716;SDS011;64333;50.138;14.332;2022-11-30T03:43:03;31.60;;;13.93;;
75716;SDS011;64333;50.138;14.332;2022-11-30T03:45:29;30.33;;;13.07;;
75716;SDS011;64333;50.138;14.332;2022-11-30T03:47:54;28.60;;;14.07;;
75716;SDS011;64333;50.138;14.332;2022-11-30T03:50:20;30.75;;;13.57;;
75716;SDS011;64333;50.138;14.332;2022-11-30T03:52:46;31.17;;;13.40;;
75716;SDS011;64333;50.138;14.332;2022-11-30T03:55:11;24.85;;;12.20;;
75716;SDS011;64333;50.138;14.332;2022-11-30T03:57:36;31.67;;;12.68;;
75716;SDS011;64333;50.138;14.332;2022-11-30T04:00:02;28.33;;;12.30;;
75716;SDS011;64333;50.138;14.332;2022-11-30T04:02:29;24.98;;;11.68;;
75716;SDS011;64333;50.138;14.332;2022-11-30T04:04:55;29.65;;;13.00;;
75716;SDS011;64333;50.138;14.332;2022-11-30T04:07:20;26.75;;;12.85;;
75716;SDS011;64333;50.138;14.332;2022-11-30T04:09:45;30.00;;;12.93;;
75716;SDS011;64333;50.138;14.332;2022-11-30T04:12:11;29.70;;;13.90;;
75716;SDS011;64333;50.138;14.332;2022-11-30T04:14:36;27.33;;;13.35;;
75716;SDS011;64333;50.138;14.332;2022-11-30T04:17:01;31.15;;;13.10;;
75716;SDS011;64333;50.138;14.332;2022-11-30T04:19:27;28.67;;;13.63;;
75716;SDS011;64333;50.138;14.332;2022-11-30T04:21:52;29.02;;;13.60;;
75716;SDS011;64333;50.138;14.332;2022-11-30T04:24:17;30.13;;;14.48;;
75716;SDS011;64333;50.138;14.332;2022-11-30T04:26:43;26.73;;;12.93;;
75716;SDS011;64333;50.138;14.332;2022-11-30T04:29:09;26.70;;;12.55;;
75716;SDS011;64333;50.138;14.332;2022-11-30T04:31:35;32.60;;;14.32;;
75716;SDS011;64333;50.138;14.332;2022-11-30T04:34:00;28.80;;;13.18;;
75716;SDS011;64333;50.138;14.332;2022-11-30T04:36:26;29.13;;;13.15;;
75716;SDS011;64333;50.138;14.332;2022-11-30T04:38:51;31.10;;;14.82;;
75716;SDS011;64333;50.138;14.332;2022-11-30T04:41:16;27.27;;;12.73;;
75716;SDS011;64333;50.138;14.332;2022-11-30T04:43:42;31.50;;;13.50;;
75716;SDS011;64333;50.138;14.332;2022-11-30T04:46:07;31.08;;;14.43;;
75716;SDS011;64333;50.138;14.332;2022-11-30T04:48:33;31.63;;;13.10;;
75716;SDS011;64333;50.138;14.332;2022-11-30T04:51:02;26.30;;;12.30;;
75716;SDS011;64333;50.138;14.332;2022-11-30T04:53:30;30.35;;;14.32;;
75716;SDS011;64333;50.138;14.332;2022-11-30T04:55:55;31.00;;;12.88;;
75716;SDS011;64333;50.138;14.332;2022-11-30T04:58:21;36.75;;;16.30;;
75716;SDS011;64333;50.138;14.332;2022-11-30T05:00:46;32.45;;;13.63;;
75716;SDS011;64333;50.138;14.332;2022-11-30T05:03:12;31.35;;;13.05;;
75716;SDS011;64333;50.138;14.332;2022-11-30T05:05:38;29.05;;;12.65;;
75716;SDS011;64333;50.138;14.332;2022-11-30T05:08:03;31.45;;;13.52;;
75716;SDS011;64333;50.138;14.332;2022-11-30T05:10:29;33.30;;;13.68;;
75716;SDS011;64333;50.138;14.332;2022-11-30T05:12:55;26.00;;;12.20;;
75716;SDS011;64333;50.138;14.332;2022-11-30T05:15:21;29.08;;;13.90;;
75716;SDS011;64333;50.138;14.332;2022-11-30T05:17:47;34.75;;;14.27;;
75716;SDS011;64333;50.138;14.332;2022-11-30T05:20:12;31.30;;;13.68;;
75716;SDS011;64333;50.138;14.332;2022-11-30T05:22:38;29.98;;;13.30;;
75716;SDS011;64333;50.138;14.332;2022-11-30T05:25:03;31.65;;;15.18;;
75716;SDS011;64333;50.138;14.332;2022-11-30T05:27:29;33.50;;;13.60;;
75716;SDS011;64333;50.138;14.332;2022-11-30T05:29:54;33.78;;;14.88;;
75716;SDS011;64333;50.138;14.332;2022-11-30T05:32:20;30.27;;;13.77;;
75716;SDS011;64333;50.138;14.332;2022-11-30T05:34:45;33.05;;;14.77;;
75716;SDS011;64333;50.138;14.332;2022-11-30T05:37:10;28.40;;;13.95;;
75716;SDS011;64333;50.138;14.332;2022-11-30T05:39:36;33.92;;;14.52;;
75716;SDS011;64333;50.138;14.332;2022-11-30T05:42:01;31.27;;;13.75;;
75716;SDS011;64333;50.138;14.332;2022-11-30T05:44:27;31.92;;;15.05;;
75716;SDS011;64333;50.138;14.332;2022-11-30T05:46:52;31.85;;;14.32;;
75716;SDS011;64333;50.138;14.332;2022-11-30T05:49:17;36.45;;;14.50;;
75716;SDS011;64333;50.138;14.332;2022-11-30T05:51:43;31.60;;;14.45;;
75716;SDS011;64333;50.138;14.332;2022-11-30T05:54:08;32.90;;;14.35;;
75716;SDS011;64333;50.138;14.332;2022-11-30T05:56:34;32.80;;;15.38;;
75716;SDS011;64333;50.138;14.332;2022-11-30T05:58:59;34.00;;;15.27;;
75716;SDS011;64333;50.138;14.332;2022-11-30T06:01:25;35.95;;;15.73;;
75716;SDS011;64333;50.138;14.332;2022-11-30T06:03:53;35.28;;;14.38;;
75716;SDS011;64333;50.138;14.332;2022-11-30T06:06:19;33.97;;;14.75;;
75716;SDS011;64333;50.138;14.332;2022-11-30T06:08:47;34.15;;;16.67;;
75716;SDS011;64333;50.138;14.332;2022-11-30T06:11:14;34.35;;;14.63;;
75716;SDS011;64333;50.138;14.332;2022-11-30T06:13:40;32.53;;;15.32;;
75716;SDS011;64333;50.138;14.332;2022-11-30T06:16:05;34.28;;;15.27;;
75716;SDS011;64333;50.138;14.332;2022-11-30T06:18:32;43.40;;;17.25;;
75716;SDS011;64333;50.138;14.332;2022-11-30T06:21:01;36.53;;;16.13;;
75716;SDS011;64333;50.138;14.332;2022-11-30T06:23:28;37.60;;;16.40;;
75716;SDS011;64333;50.138;14.332;2022-11-30T06:25:54;40.45;;;15.98;;
75716;SDS011;64333;50.138;14.332;2022-11-30T06:28:20;40.45;;;16.35;;
75716;SDS011;64333;50.138;14.332;2022-11-30T06:30:45;38.70;;;17.30;;
75716;SDS011;64333;50.138;14.332;2022-11-30T06:33:10;33.40;;;15.93;;
75716;SDS011;64333;50.138;14.332;2022-11-30T06:35:36;40.75;;;16.48;;
75716;SDS011;64333;50.138;14.332;2022-11-30T06:38:01;37.97;;;17.30;;
75716;SDS011;64333;50.138;14.332;2022-11-30T06:40:27;37.13;;;17.15;;
75716;SDS011;64333;50.138;14.332;2022-11-30T06:42:52;38.97;;;16.23;;
75716;SDS011;64333;50.138;14.332;2022-11-30T06:45:18;39.22;;;16.05;;
75716;SDS011;64333;50.138;14.332;2022-11-30T06:47:44;40.10;;;16.70;;
75716;SDS011;64333;50.138;14.332;2022-11-30T06:50:09;39.63;;;16.85;;
75716;SDS011;64333;50.138;14.332;2022-11-30T06:52:36;51.05;;;17.13;;
75716;SDS011;64333;50.138;14.332;2022-11-30T06:55:01;39.40;;;16.60;;
75716;SDS011;64333;50.138;14.332;2022-11-30T06:57:27;43.15;;;17.05;;
75716;SDS011;64333;50.138;14.332;2022-11-30T06:59:53;40.78;;;17.08;;
75716;SDS011;64333;50.138;14.332;2022-11-30T07:02:19;36.75;;;16.50;;
75716;SDS011;64333;50.138;14.332;2022-11-30T07:04:44;41.88;;;17.67;;
75716;SDS011;64333;50.138;14.332;2022-11-30T07:07:10;41.30;;;17.17;;
75716;SDS011;64333;50.138;14.332;2022-11-30T07:09:35;37.95;;;16.13;;
75716;SDS011;64333;50.138;14.332;2022-11-30T07:12:01;40.20;;;17.55;;
75716;SDS011;64333;50.138;14.332;2022-11-30T07:14:27;42.67;;;17.02;;
75716;SDS011;64333;50.138;14.332;2022-11-30T07:16:55;41.03;;;16.98;;
75716;SDS011;64333;50.138;14.332;2022-11-30T07:19:21;41.00;;;17.27;;
75716;SDS011;64333;50.138;14.332;2022-11-30T07:21:47;38.00;;;16.90;;
75716;SDS011;64333;50.138;14.332;2022-11-30T07:24:13;47.33;;;19.13;;
75716;SDS011;64333;50.138;14.332;2022-11-30T07:26:58;69.38;;;30.90;;
75716;SDS011;64333;50.138;14.332;2022-11-30T07:29:25;63.47;;;27.38;;
75716;SDS011;64333;50.138;14.332;2022-11-30T07:31:50;39.63;;;16.65;;
75716;SDS011;64333;50.138;14.332;2022-11-30T07:34:16;35.83;;;16.17;;
75716;SDS011;64333;50.138;14.332;2022-11-30T07:36:42;36.92;;;14.85;;
75716;SDS011;64333;50.138;14.332;2022-11-30T07:39:08;33.33;;;15.70;;
75716;SDS011;64333;50.138;14.332;2022-11-30T07:41:34;35.78;;;15.23;;
75716;SDS011;64333;50.138;14.332;2022-11-30T07:43:59;37.75;;;15.40;;
75716;SDS011;64333;50.138;14.332;2022-11-30T07:46:24;39.28;;;15.57;;
75716;SDS011;64333;50.138;14.332;2022-11-30T07:48:50;33.28;;;15.30;;
75716;SDS011;64333;50.138;14.332;2022-11-30T07:51:16;33.33;;;15.07;;
75716;SDS011;64333;50.138;14.332;2022-11-30T07:53:43;33.53;;;15.60;;
75716;SDS011;64333;50.138;14.332;2022-11-30T07:56:10;40.05;;;17.20;;
75716;SDS011;64333;50.138;14.332;2022-11-30T07:58:38;33.55;;;16.95;;
75716;SDS011;64333;50.138;14.332;2022-11-30T08:01:04;35.40;;;16.13;;
75716;SDS011;64333;50.138;14.332;2022-11-30T08:03:34;38.70;;;18.70;;
75716;SDS011;64333;50.138;14.332;2022-11-30T08:06:05;34.90;;;15.02;;
75716;SDS011;64333;50.138;14.332;2022-11-30T08:08:31;34.30;;;15.77;;
75716;SDS011;64333;50.138;14.332;2022-11-30T08:11:05;31.70;;;15.82;;
75716;SDS011;64333;50.138;14.332;2022-11-30T08:13:32;29.55;;;14.73;;
75716;SDS011;64333;50.138;14.332;2022-11-30T08:16:02;35.60;;;16.00;;
75716;SDS011;64333;50.138;14.332;2022-11-30T08:18:28;28.90;;;14.63;;
75716;SDS011;64333;50.138;14.332;2022-11-30T08:20:57;33.75;;;14.82;;
75716;SDS011;64333;50.138;14.332;2022-11-30T08:23:24;32.00;;;14.65;;
75716;SDS011;64333;50.138;14.332;2022-11-30T08:25:51;33.05;;;15.02;;
75716;SDS011;64333;50.138;14.332;2022-11-30T08:28:16;32.08;;;16.33;;
75716;SDS011;64333;50.138;14.332;2022-11-30T08:30:43;30.92;;;15.07;;
75716;SDS011;64333;50.138;14.332;2022-11-30T08:33:09;31.52;;;15.80;;
75716;SDS011;64333;50.138;14.332;2022-11-30T08:35:34;27.65;;;14.52;;
75716;SDS011;64333;50.138;14.332;2022-11-30T08:37:59;31.25;;;15.20;;
75716;SDS011;64333;50.138;14.332;2022-11-30T08:40:25;32.65;;;15.90;;
75716;SDS011;64333;50.138;14.332;2022-11-30T08:42:50;27.38;;;14.13;;
75716;SDS011;64333;50.138;14.332;2022-11-30T08:45:15;31.00;;;14.63;;
75716;SDS011;64333;50.138;14.332;2022-11-30T08:47:41;34.50;;;18.88;;
75716;SDS011;64333;50.138;14.332;2022-11-30T08:50:06;26.20;;;13.25;;
75716;SDS011;64333;50.138;14.332;2022-11-30T08:52:32;28.52;;;14.65;;
75716;SDS011;64333;50.138;14.332;2022-11-30T08:54:58;28.02;;;14.27;;
75716;SDS011;64333;50.138;14.332;2022-11-30T08:57:23;25.48;;;14.77;;
75716;SDS011;64333;50.138;14.332;2022-11-30T08:59:50;27.17;;;15.20;;
75716;SDS011;64333;50.138;14.332;2022-11-30T09:02:16;28.42;;;15.23;;
75716;SDS011;64333;50.138;14.332;2022-11-30T09:04:43;29.48;;;15.18;;
75716;SDS011;64333;50.138;14.332;2022-11-30T09:07:09;31.27;;;14.77;;
75716;SDS011;64333;50.138;14.332;2022-11-30T09:09:35;33.20;;;16.10;;
75716;SDS011;64333;50.138;14.332;2022-11-30T09:12:01;33.50;;;15.50;;
75716;SDS011;64333;50.138;14.332;2022-11-30T09:14:26;30.10;;;16.65;;
75716;SDS011;64333;50.138;14.332;2022-11-30T09:16:52;29.60;;;16.20;;
75716;SDS011;64333;50.138;14.332;2022-11-30T09:19:18;30.27;;;16.23;;
75716;SDS011;64333;50.138;14.332;2022-11-30T09:21:44;30.52;;;15.52;;
75716;SDS011;64333;50.138;14.332;2022-11-30T09:24:09;29.15;;;15.52;;
75716;SDS011;64333;50.138;14.332;2022-11-30T09:26:35;27.65;;;15.50;;
75716;SDS011;64333;50.138;14.332;2022-11-30T09:29:00;30.15;;;16.50;;
75716;SDS011;64333;50.138;14.332;2022-11-30T09:31:25;30.75;;;17.40;;
75716;SDS011;64333;50.138;14.332;2022-11-30T09:33:51;40.15;;;19.70;;
75716;SDS011;64333;50.138;14.332;2022-11-30T09:36:20;34.78;;;19.85;;
75716;SDS011;64333;50.138;14.332;2022-11-30T09:38:46;32.78;;;17.73;;
75716;SDS011;64333;50.138;14.332;2022-11-30T09:47:03;29.88;;;16.80;;
75716;SDS011;64333;50.138;14.332;2022-11-30T09:49:36;30.63;;;17.65;;
75716;SDS011;64333;50.138;14.332;2022-11-30T09:52:06;29.42;;;18.10;;
75716;SDS011;64333;50.138;14.332;2022-11-30T09:54:37;33.60;;;18.48;;
75716;SDS011;64333;50.138;14.332;2022-11-30T09:57:24;37.50;;;20.55;;
75716;SDS011;64333;50.138;14.332;2022-11-30T10:00:15;33.75;;;18.92;;
75716;SDS011;64333;50.138;14.332;2022-11-30T10:02:43;35.42;;;17.27;;
75716;SDS011;64333;50.138;14.332;2022-11-30T10:05:13;31.88;;;17.77;;
75716;SDS011;64333;50.138;14.332;2022-11-30T10:11:10;32.88;;;15.80;;
75716;SDS011;64333;50.138;14.332;2022-11-30T10:14:00;29.67;;;16.15;;
75716;SDS011;64333;50.138;14.332;2022-11-30T10:27:17;32.30;;;16.98;;
75716;SDS011;64333;50.138;14.332;2022-11-30T10:29:56;28.67;;;15.23;;
75716;SDS011;64333;50.138;14.332;2022-11-30T10:32:28;31.60;;;15.70;;
75716;SDS011;64333;50.138;14.332;2022-11-30T10:35:10;28.90;;;16.15;;
75716;SDS011;64333;50.138;14.332;2022-11-30T10:37:41;31.50;;;16.40;;
75716;SDS011;64333;50.138;14.332;2022-11-30T10:45:26;32.78;;;17.67;;
75716;SDS011;64333;50.138;14.332;2022-11-30T10:50:21;32.08;;;15.85;;
75716;SDS011;64333;50.138;14.332;2022-11-30T10:52:52;30.85;;;15.98;;
75716;SDS011;64333;50.138;14.332;2022-11-30T10:55:25;32.38;;;15.25;;
75716;SDS011;64333;50.138;14.332;2022-11-30T10:57:54;29.35;;;14.00;;
75716;SDS011;64333;50.138;14.332;2022-11-30T11:00:25;26.58;;;14.07;;
75716;SDS011;64333;50.138;14.332;2022-11-30T11:02:50;25.95;;;12.25;;
75716;SDS011;64333;50.138;14.332;2022-11-30T11:07:47;25.20;;;13.52;;
75716;SDS011;64333;50.138;14.332;2022-11-30T11:10:24;25.95;;;13.45;;
75716;SDS011;64333;50.138;14.332;2022-11-30T11:16:03;31.52;;;14.75;;
75716;SDS011;64333;50.138;14.332;2022-11-30T11:18:32;26.58;;;13.45;;
75716;SDS011;64333;50.138;14.332;2022-11-30T11:23:40;26.65;;;13.80;;
75716;SDS011;64333;50.138;14.332;2022-11-30T11:26:16;37.33;;;17.65;;
75716;SDS011;64333;50.138;14.332;2022-11-30T11:34:27;30.17;;;15.48;;
75716;SDS011;64333;50.138;14.332;2022-11-30T11:37:05;34.30;;;17.40;;
75716;SDS011;64333;50.138;14.332;2022-11-30T11:39:37;33.00;;;16.42;;
75716;SDS011;64333;50.138;14.332;2022-11-30T11:42:02;41.00;;;18.77;;
75716;SDS011;64333;50.138;14.332;2022-11-30T11:44:29;35.42;;;18.52;;
75716;SDS011;64333;50.138;14.332;2022-11-30T11:47:00;33.83;;;17.45;;
75716;SDS011;64333;50.138;14.332;2022-11-30T11:49:36;33.35;;;16.80;;
75716;SDS011;64333;50.138;14.332;2022-11-30T11:54:42;35.33;;;18.20;;
75716;SDS011;64333;50.138;14.332;2022-11-30T11:57:14;36.40;;;18.50;;
75716;SDS011;64333;50.138;14.332;2022-11-30T12:00:16;36.78;;;18.70;;
75716;SDS011;64333;50.138;14.332;2022-11-30T12:02:54;35.40;;;17.77;;
75716;SDS011;64333;50.138;14.332;2022-11-30T12:05:32;38.58;;;16.98;;
75716;SDS011;64333;50.138;14.332;2022-11-30T12:08:37;36.15;;;17.25;;
75716;SDS011;64333;50.138;14.332;2022-11-30T12:14:14;36.97;;;17.58;;
75716;SDS011;64333;50.138;14.332;2022-11-30T12:16:56;37.63;;;18.35;;
75716;SDS011;64333;50.138;14.332;2022-11-30T12:19:35;39.05;;;17.98;;
75716;SDS011;64333;50.138;14.332;2022-11-30T12:22:26;33.88;;;17.55;;
75716;SDS011;64333;50.138;14.332;2022-11-30T12:30:54;38.55;;;17.63;;
75716;SDS011;64333;50.138;14.332;2022-11-30T12:39:09;36.25;;;17.63;;
75716;SDS011;64333;50.138;14.332;2022-11-30T12:44:23;32.72;;;17.77;;
75716;SDS011;64333;50.138;14.332;2022-11-30T12:47:12;35.72;;;18.90;;
75716;SDS011;64333;50.138;14.332;2022-11-30T12:55:57;34.53;;;17.10;;
75716;SDS011;64333;50.138;14.332;2022-11-30T12:58:59;35.30;;;16.58;;
75716;SDS011;64333;50.138;14.332;2022-11-30T13:04:57;32.00;;;15.65;;
75716;SDS011;64333;50.138;14.332;2022-11-30T13:12:29;36.00;;;16.92;;
75716;SDS011;64333;50.138;14.332;2022-11-30T13:15:03;29.92;;;14.55;;
75716;SDS011;64333;50.138;14.332;2022-11-30T13:17:31;29.98;;;15.48;;
75716;SDS011;64333;50.138;14.332;2022-11-30T13:27:56;28.70;;;15.55;;
75716;SDS011;64333;50.138;14.332;2022-11-30T13:35:57;29.15;;;14.90;;
75716;SDS011;64333;50.138;14.332;2022-11-30T13:38:24;26.05;;;14.48;;
75716;SDS011;64333;50.138;14.332;2022-11-30T13:41:00;30.10;;;14.50;;
75716;SDS011;64333;50.138;14.332;2022-11-30T13:43:29;29.17;;;14.90;;
75716;SDS011;64333;50.138;14.332;2022-11-30T13:46:14;28.27;;;14.57;;
75716;SDS011;64333;50.138;14.332;2022-11-30T13:48:41;30.35;;;14.43;;
75716;SDS011;64333;50.138;14.332;2022-11-30T13:51:07;35.20;;;17.02;;
75716;SDS011;64333;50.138;14.332;2022-11-30T13:53:34;34.40;;;16.45;;
75716;SDS011;64333;50.138;14.332;2022-11-30T14:02:51;32.08;;;15.43;;
75716;SDS011;64333;50.138;14.332;2022-11-30T14:23:17;30.15;;;14.02;;
75716;SDS011;64333;50.138;14.332;2022-11-30T14:25:50;35.22;;;16.73;;
75716;SDS011;64333;50.138;14.332;2022-11-30T14:28:18;33.75;;;16.63;;
75716;SDS011;64333;50.138;14.332;2022-11-30T14:30:48;34.63;;;16.98;;
75716;SDS011;64333;50.138;14.332;2022-11-30T14:33:17;31.48;;;16.75;;
75716;SDS011;64333;50.138;14.332;2022-11-30T14:35:47;36.78;;;17.02;;
75716;SDS011;64333;50.138;14.332;2022-11-30T14:38:23;30.60;;;15.43;;
75716;SDS011;64333;50.138;14.332;2022-11-30T14:40:53;33.33;;;16.40;;
75716;SDS011;64333;50.138;14.332;2022-11-30T14:43:19;38.33;;;17.20;;
75716;SDS011;64333;50.138;14.332;2022-11-30T14:46:00;33.63;;;16.42;;
75716;SDS011;64333;50.138;14.332;2022-11-30T14:48:28;30.35;;;15.88;;
75716;SDS011;64333;50.138;14.332;2022-11-30T14:50:54;35.78;;;16.52;;
75716;SDS011;64333;50.138;14.332;2022-11-30T14:59:01;34.58;;;16.73;;
75716;SDS011;64333;50.138;14.332;2022-11-30T15:01:40;36.70;;;17.98;;
75716;SDS011;64333;50.138;14.332;2022-11-30T15:04:09;43.65;;;21.05;;
75716;SDS011;64333;50.138;14.332;2022-11-30T15:06:38;45.72;;;19.27;;
75716;SDS011;64333;50.138;14.332;2022-11-30T15:09:08;37.58;;;17.42;;
75716;SDS011;64333;50.138;14.332;2022-11-30T15:11:40;37.13;;;17.23;;
75716;SDS011;64333;50.138;14.332;2022-11-30T15:14:07;37.15;;;18.17;;
75716;SDS011;64333;50.138;14.332;2022-11-30T15:16:34;32.15;;;15.27;;
75716;SDS011;64333;50.138;14.332;2022-11-30T15:19:00;38.42;;;17.25;;
75716;SDS011;64333;50.138;14.332;2022-11-30T15:21:46;38.45;;;16.73;;
75716;SDS011;64333;50.138;14.332;2022-11-30T15:24:11;32.35;;;16.02;;
75716;SDS011;64333;50.138;14.332;2022-11-30T15:26:46;36.83;;;17.05;;
75716;SDS011;64333;50.138;14.332;2022-11-30T15:29:27;37.05;;;17.35;;
75716;SDS011;64333;50.138;14.332;2022-11-30T15:32:04;34.85;;;16.58;;
75716;SDS011;64333;50.138;14.332;2022-11-30T15:34:36;34.45;;;18.23;;
75716;SDS011;64333;50.138;14.332;2022-11-30T15:37:08;49.38;;;22.02;;
75716;SDS011;64333;50.138;14.332;2022-11-30T15:39:34;50.50;;;22.50;;
75716;SDS011;64333;50.138;14.332;2022-11-30T15:42:02;50.28;;;22.52;;
75716;SDS011;64333;50.138;14.332;2022-11-30T15:47:00;44.08;;;21.98;;
75716;SDS011;64333;50.138;14.332;2022-11-30T15:49:27;40.20;;;20.00;;
75716;SDS011;64333;50.138;14.332;2022-11-30T15:51:59;40.38;;;19.98;;
75716;SDS011;64333;50.138;14.332;2022-11-30T15:57:11;47.78;;;20.60;;
75716;SDS011;64333;50.138;14.332;2022-11-30T15:59:37;44.47;;;21.02;;
75716;SDS011;64333;50.138;14.332;2022-11-30T16:02:03;40.08;;;19.95;;
75716;SDS011;64333;50.138;14.332;2022-11-30T16:08:12;44.65;;;20.92;;
75716;SDS011;64333;50.138;14.332;2022-11-30T16:12:45;40.72;;;22.15;;
75716;SDS011;64333;50.138;14.332;2022-11-30T16:15:18;45.97;;;20.60;;
75716;SDS011;64333;50.138;14.332;2022-11-30T16:17:44;43.58;;;22.30;;
75716;SDS011;64333;50.138;14.332;2022-11-30T16:20:13;48.47;;;21.55;;
75716;SDS011;64333;50.138;14.332;2022-11-30T16:22:42;46.13;;;22.50;;
75716;SDS011;64333;50.138;14.332;2022-11-30T16:25:31;46.90;;;23.88;;
75716;SDS011;64333;50.138;14.332;2022-11-30T16:27:55;42.55;;;21.38;;
75716;SDS011;64333;50.138;14.332;2022-11-30T16:30:21;39.97;;;20.95;;
75716;SDS011;64333;50.138;14.332;2022-11-30T16:32:48;42.00;;;21.25;;
75716;SDS011;64333;50.138;14.332;2022-11-30T16:35:24;39.85;;;20.88;;
75716;SDS011;64333;50.138;14.332;2022-11-30T16:37:54;40.67;;;19.98;;
75716;SDS011;64333;50.138;14.332;2022-11-30T16:40:19;39.28;;;20.40;;
75716;SDS011;64333;50.138;14.332;2022-11-30T16:42:46;44.00;;;19.83;;
75716;SDS011;64333;50.138;14.332;2022-11-30T16:45:13;39.88;;;19.70;;